createdAt,value
2022-09-22T00:01:51.167Z,10865.86035
2022-09-22T00:16:53.595Z,1097.03845
2022-09-22T00:31:55.861Z,1097.03845
2022-09-22T00:46:58.134Z,749.56445
2022-09-22T01:02:00.460Z,616.78986
2022-09-22T01:17:03.932Z,475.54028
2022-09-22T01:32:06.397Z,246.71594
2022-09-22T01:47:08.872Z,67.7998
2022-09-22T02:02:11.584Z,15.06662
2022-09-22T02:17:14.154Z,0.94166
2022-09-22T02:32:16.661Z,0
2022-09-22T02:47:19.117Z,0
2022-09-22T03:02:21.379Z,0
2022-09-22T03:17:23.898Z,0
2022-09-22T03:32:26.144Z,0
2022-09-22T03:47:28.353Z,0
2022-09-22T04:02:30.658Z,0
2022-09-22T04:17:32.941Z,0
2022-09-22T04:32:35.220Z,0
2022-09-22T04:47:37.456Z,0
2022-09-22T05:02:39.648Z,0
2022-09-22T05:17:41.901Z,0
2022-09-22T05:32:44.135Z,0
2022-09-22T05:47:46.349Z,0
2022-09-22T06:02:48.868Z,0
2022-09-22T06:17:51.090Z,0
2022-09-22T06:32:53.352Z,0
2022-09-22T06:47:55.611Z,0
2022-09-22T07:02:57.826Z,0
2022-09-22T07:18:00.077Z,0
2022-09-22T07:33:02.357Z,0
2022-09-22T07:48:04.787Z,0
2022-09-22T08:03:06.989Z,0
2022-09-22T08:18:09.242Z,0
2022-09-22T08:33:11.489Z,0
2022-09-22T08:48:13.728Z,0
2022-09-22T09:03:15.993Z,0
2022-09-22T09:18:18.240Z,0
2022-09-22T09:33:20.427Z,0
2022-09-22T09:48:22.638Z,0
2022-09-22T10:03:24.953Z,0
2022-09-22T10:18:27.301Z,0
2022-09-22T10:33:29.665Z,0
2022-09-22T10:48:31.904Z,0
2022-09-22T11:03:34.111Z,0
2022-09-22T11:18:39.528Z,0
2022-09-22T11:33:42.112Z,0
2022-09-22T11:48:44.340Z,0
2022-09-22T12:03:46.636Z,0
2022-09-22T12:18:48.931Z,0
2022-09-22T12:33:51.279Z,0
2022-09-22T12:48:53.665Z,0
2022-09-22T13:03:56.052Z,0
2022-09-22T13:18:58.285Z,0.94166
2022-09-22T13:34:00.731Z,7.53331
2022-09-22T13:49:02.926Z,39.54988
2022-09-22T14:04:05.369Z,119.59132
2022-09-22T14:19:07.726Z,244.83263
2022-09-22T14:34:09.957Z,370.07391
2022-09-22T14:49:12.177Z,597.9566
2022-09-22T15:04:14.467Z,822.07263
2022-09-22T15:19:16.481Z,999.10541
2022-09-22T15:34:18.707Z,966.14716
2022-09-22T15:49:21.141Z,988.74713
2022-09-22T16:04:23.524Z,1169.54663
2022-09-22T16:19:25.741Z,1152.59668
2022-09-22T16:34:27.950Z,1193.08813
2022-09-22T16:49:30.154Z,1314.56287
2022-09-22T17:04:32.533Z,1499.12891
2022-09-22T17:19:34.749Z,1905.92773
2022-09-22T17:34:36.969Z,2066.95239
2022-09-22T17:49:39.211Z,2890.9082
2022-09-22T18:04:41.436Z,3035.92456
2022-09-22T18:19:43.638Z,2150.7605
2022-09-22T18:34:45.850Z,2152.6438
2022-09-22T18:49:48.118Z,2600.87573
2022-09-22T19:04:50.428Z,3960.63843
2022-09-22T19:19:52.769Z,5265.78467
2022-09-22T19:34:55.000Z,6018.17432
2022-09-22T19:49:57.241Z,4790.24414
2022-09-22T20:04:59.411Z,3718.63086
2022-09-22T20:20:01.638Z,3710.15576
2022-09-22T20:35:03.850Z,4627.33643
2022-09-22T20:50:06.095Z,3673.43091
2022-09-22T21:05:08.329Z,3251.56543
2022-09-22T21:20:10.576Z,3323.13208
2022-09-22T21:35:12.812Z,3513.34814
2022-09-22T21:50:15.039Z,3364.56519
2022-09-22T22:05:17.272Z,3854.23047
2022-09-22T22:20:19.530Z,3426.71509
2022-09-22T22:35:21.792Z,2589.57568
2022-09-22T22:50:23.995Z,2171.47705
2022-09-22T23:05:26.255Z,1961.48596
2022-09-22T23:20:28.518Z,1911.57776
2022-09-22T23:35:30.865Z,1925.70276
2022-09-22T23:50:33.113Z,3019.91626
